createdAt,value
2019-02-11T00:02:04.421Z,81.69
2019-02-11T00:04:32.665Z,81.57
2019-02-11T00:07:01.108Z,81.57
2019-02-11T00:09:29.558Z,81.49
2019-02-11T00:11:58.019Z,81.75
2019-02-11T00:14:26.473Z,81.87
2019-02-11T00:16:54.950Z,81.87
2019-02-11T00:19:23.179Z,81.95
2019-02-11T00:21:51.423Z,81.95
2019-02-11T00:24:19.665Z,81.61
2019-02-11T00:26:47.899Z,81.95
2019-02-11T00:29:16.156Z,82.11
2019-02-11T00:31:44.397Z,82.11
2019-02-11T00:34:12.630Z,82.11
2019-02-11T00:36:40.865Z,82.62
2019-02-11T00:39:09.101Z,82.37
2019-02-11T00:41:37.562Z,81.65
2019-02-11T00:44:05.856Z,81.33
2019-02-11T00:46:34.254Z,81.33
2019-02-11T00:49:02.711Z,81.71
2019-02-11T00:51:30.943Z,81.71
2019-02-11T00:53:59.171Z,81.37
2019-02-11T00:56:27.667Z,81.37
2019-02-11T00:58:56.143Z,81.44
2019-02-11T01:01:24.390Z,81.25
2019-02-11T01:03:52.729Z,81.25
2019-02-11T01:06:20.989Z,80.28
2019-02-11T01:08:49.214Z,81.26
2019-02-11T01:11:17.467Z,81.32
2019-02-11T01:13:45.713Z,81.47
2019-02-11T01:16:14.196Z,81.47
2019-02-11T01:18:42.435Z,82.37
2019-02-11T01:21:10.914Z,81.41
2019-02-11T01:23:39.374Z,82.07
2019-02-11T01:26:07.920Z,81.98
2019-02-11T01:28:36.168Z,81.74
2019-02-11T01:31:04.409Z,82.24
2019-02-11T01:33:32.647Z,82.51
2019-02-11T01:36:00.941Z,82.51
2019-02-11T01:38:29.181Z,82.30
2019-02-11T01:40:57.416Z,82.74
2019-02-11T01:43:25.647Z,82.31
2019-02-11T01:45:54.132Z,81.97
2019-02-11T01:48:22.372Z,83.76
2019-02-11T01:50:50.613Z,83.76
2019-02-11T01:53:18.867Z,82.89
2019-02-11T01:55:47.094Z,83.08
2019-02-11T01:58:15.338Z,82.51
2019-02-11T02:00:43.560Z,82.33
2019-02-11T02:03:11.794Z,82.47
2019-02-11T02:05:40.029Z,83.11
2019-02-11T02:08:08.258Z,83.11
2019-02-11T02:10:36.493Z,83.05
2019-02-11T02:13:04.806Z,82.98
2019-02-11T02:15:33.046Z,83.30
2019-02-11T02:18:01.352Z,83.50
2019-02-11T02:20:29.914Z,83.46
2019-02-11T02:22:58.146Z,82.73
2019-02-11T02:25:26.676Z,81.99
2019-02-11T02:27:54.969Z,81.65
2019-02-11T02:30:23.147Z,81.05
2019-02-11T02:32:51.375Z,81.05
2019-02-11T02:35:19.619Z,80.15
2019-02-11T02:37:47.841Z,80.32
2019-02-11T02:40:16.077Z,81.08
2019-02-11T02:42:44.615Z,81.08
2019-02-11T02:45:13.093Z,80.68
2019-02-11T02:47:41.326Z,80.24
2019-02-11T02:50:10.472Z,80.24
2019-02-11T02:52:38.698Z,80.45
2019-02-11T02:55:08.175Z,81.26
2019-02-11T02:57:36.436Z,81.05
2019-02-11T03:00:07.890Z,80.69
2019-02-11T03:02:36.357Z,80.69
2019-02-11T03:05:06.531Z,80.99
2019-02-11T03:07:34.994Z,80.22
2019-02-11T03:10:04.160Z,80.22
2019-02-11T03:12:32.387Z,80.94
2019-02-11T03:15:00.643Z,80.94
2019-02-11T03:17:28.911Z,80.19
2019-02-11T03:19:57.151Z,79.63
2019-02-11T03:22:25.648Z,79.63
2019-02-11T03:24:54.149Z,79.46
2019-02-11T03:27:22.419Z,79.10
2019-02-11T03:29:50.905Z,79.10
2019-02-11T03:32:19.599Z,79.33
2019-02-11T03:34:48.108Z,78.84
2019-02-11T03:37:16.344Z,78.84
2019-02-11T03:39:44.633Z,78.71
2019-02-11T03:42:13.213Z,79.19
2019-02-11T03:44:41.425Z,78.96
2019-02-11T03:47:09.657Z,77.98
2019-02-11T03:49:37.897Z,77.98
2019-02-11T03:52:06.412Z,77.96
2019-02-11T03:54:34.633Z,78.12
2019-02-11T03:57:03.190Z,78.51
2019-02-11T03:59:31.652Z,78.78
2019-02-11T04:01:59.996Z,78.76
2019-02-11T04:04:28.195Z,78.76
2019-02-11T04:06:56.429Z,78.43
2019-02-11T04:09:24.972Z,78.16
2019-02-11T04:11:53.199Z,77.54
2019-02-11T04:14:24.985Z,77.95
2019-02-11T04:16:51.636Z,77.95
2019-02-11T04:19:19.865Z,77.85
2019-02-11T04:21:49.767Z,77.96
2019-02-11T04:24:17.989Z,77.87
2019-02-11T04:26:46.226Z,78.16
2019-02-11T04:29:14.459Z,78.16
2019-02-11T04:31:42.699Z,78.17
2019-02-11T04:34:11.162Z,78.17
2019-02-11T04:36:39.613Z,78.97
2019-02-11T04:39:08.060Z,79.09
2019-02-11T04:41:36.543Z,79.55
2019-02-11T04:44:04.783Z,80.03
2019-02-11T04:46:33.007Z,79.28
2019-02-11T04:49:01.231Z,79.28
2019-02-11T04:51:29.468Z,79.81
2019-02-11T04:53:57.944Z,79.64
2019-02-11T04:56:26.173Z,79.81
2019-02-11T04:58:54.710Z,79.81
2019-02-11T05:01:22.946Z,80.01
2019-02-11T05:03:51.401Z,80.01
2019-02-11T05:06:19.871Z,80.10
2019-02-11T05:08:48.430Z,80.34
2019-02-11T05:11:16.663Z,80.16
2019-02-11T05:13:45.184Z,80.16
2019-02-11T05:16:13.633Z,79.89
2019-02-11T05:18:41.866Z,79.95
2019-02-11T05:21:10.439Z,79.35
2019-02-11T05:23:38.665Z,78.64
2019-02-11T05:26:06.927Z,78.64
2019-02-11T05:28:35.168Z,78.74
2019-02-11T05:31:03.393Z,78.96
2019-02-11T05:33:31.634Z,78.96
2019-02-11T05:36:00.194Z,80.29
2019-02-11T05:38:28.669Z,81.21
2019-02-11T05:40:56.886Z,81.58
2019-02-11T05:43:25.432Z,81.58
2019-02-11T05:45:53.656Z,81.50
2019-02-11T05:48:21.920Z,82.36
2019-02-11T05:50:50.152Z,82.43
2019-02-11T05:53:18.390Z,83.50
2019-02-11T05:55:46.622Z,83.08
2019-02-11T05:58:14.918Z,83.11
2019-02-11T06:00:43.158Z,83.11
2019-02-11T06:03:11.399Z,83.80
2019-02-11T06:05:39.626Z,83.80
2019-02-11T06:08:07.921Z,84.13
2019-02-11T06:10:36.481Z,83.70
2019-02-11T06:13:04.930Z,84.10
2019-02-11T06:15:33.167Z,83.65
2019-02-11T06:18:01.403Z,83.65
2019-02-11T06:20:29.897Z,83.99
2019-02-11T06:22:58.121Z,84.34
2019-02-11T06:25:26.370Z,84.38
2019-02-11T06:27:54.807Z,84.80
2019-02-11T06:30:23.316Z,84.72
2019-02-11T06:32:51.558Z,83.98
2019-02-11T06:35:19.785Z,83.98
2019-02-11T06:37:48.274Z,83.57
2019-02-11T06:40:16.511Z,83.62
2019-02-11T06:42:44.748Z,83.20
2019-02-11T06:45:13.572Z,82.98
2019-02-11T06:47:42.176Z,81.68
2019-02-11T06:50:13.481Z,80.95
2019-02-11T06:52:41.718Z,80.96
2019-02-11T06:55:11.839Z,80.96
2019-02-11T06:57:40.061Z,80.22
2019-02-11T07:00:13.039Z,80.35
2019-02-11T07:02:41.262Z,79.81
2019-02-11T07:05:09.794Z,79.37
2019-02-11T07:07:38.255Z,77.65
2019-02-11T07:10:11.456Z,77.65
2019-02-11T07:12:39.676Z,78.16
2019-02-11T07:15:21.305Z,77.55
2019-02-11T07:17:42.926Z,77.27
2019-02-11T07:20:11.554Z,76.77
2019-02-11T07:22:39.781Z,76.83
2019-02-11T07:25:08.978Z,76.46
2019-02-11T07:27:37.208Z,76.46
2019-02-11T07:30:08.682Z,76.52
2019-02-11T07:32:36.909Z,76.35
2019-02-11T07:35:05.615Z,76.05
2019-02-11T07:37:34.146Z,76.05
2019-02-11T07:40:02.553Z,76.48
2019-02-11T07:42:38.379Z,76.25
2019-02-11T07:45:10.912Z,75.52
2019-02-11T07:47:39.154Z,75.34
2019-02-11T07:50:07.457Z,75.80
2019-02-11T07:52:35.699Z,75.43
2019-02-11T07:55:05.397Z,74.89
2019-02-11T07:57:33.637Z,74.89
2019-02-11T08:00:02.096Z,74.52
2019-02-11T08:02:30.337Z,74.24
2019-02-11T08:04:58.570Z,74.15
2019-02-11T08:07:26.793Z,74.09
2019-02-11T08:09:55.250Z,73.76
2019-02-11T08:12:23.476Z,74.06
2019-02-11T08:14:51.710Z,72.85
2019-02-11T08:17:19.943Z,72.35
2019-02-11T08:19:48.180Z,72.35
2019-02-11T08:22:16.402Z,71.73
2019-02-11T08:24:44.621Z,71.73
2019-02-11T08:27:13.188Z,72.00
2019-02-11T08:29:41.637Z,72.00
2019-02-11T08:32:10.092Z,71.71
2019-02-11T08:34:38.546Z,72.08
2019-02-11T08:37:07.079Z,72.95
2019-02-11T08:39:35.525Z,73.18
2019-02-11T08:42:04.000Z,73.19
2019-02-11T08:44:33.623Z,73.51
2019-02-11T08:47:02.177Z,73.05
2019-02-11T08:49:30.398Z,73.05
2019-02-11T08:51:58.635Z,74.00
2019-02-11T08:54:26.859Z,73.71
2019-02-11T08:56:55.108Z,73.71
2019-02-11T08:59:23.341Z,73.17
2019-02-11T09:01:51.854Z,72.84
2019-02-11T09:04:20.320Z,72.65
2019-02-11T09:06:48.559Z,73.14
2019-02-11T09:09:17.098Z,73.12
2019-02-11T09:11:45.592Z,72.19
2019-02-11T09:14:14.041Z,72.19
2019-02-11T09:16:42.277Z,72.19
2019-02-11T09:19:10.509Z,72.74
2019-02-11T09:21:38.810Z,73.15
2019-02-11T09:24:07.269Z,74.52
2019-02-11T09:26:35.737Z,75.60
2019-02-11T09:29:03.973Z,76.42
2019-02-11T09:31:32.427Z,76.88
2019-02-11T09:34:00.651Z,76.29
2019-02-11T09:36:29.138Z,75.90
2019-02-11T09:38:57.382Z,75.92
2019-02-11T09:41:25.701Z,75.92
2019-02-11T09:43:53.932Z,76.07
2019-02-11T09:46:22.468Z,74.76
2019-02-11T09:48:50.760Z,74.52
2019-02-11T09:51:19.737Z,73.79
2019-02-11T09:53:48.058Z,73.79
2019-02-11T09:56:16.290Z,73.16
2019-02-11T09:58:44.528Z,73.71
2019-02-11T10:01:12.977Z,73.71
2019-02-11T10:03:41.209Z,73.60
2019-02-11T10:06:09.439Z,73.36
2019-02-11T10:08:37.901Z,73.36
2019-02-11T10:11:06.352Z,73.51
2019-02-11T10:13:34.816Z,73.51
2019-02-11T10:16:03.382Z,73.17
2019-02-11T10:18:31.628Z,73.33
2019-02-11T10:20:59.853Z,72.39
2019-02-11T10:23:28.087Z,72.53
2019-02-11T10:25:56.305Z,72.61
2019-02-11T10:28:24.837Z,72.61
2019-02-11T10:30:53.317Z,73.03
2019-02-11T10:33:21.553Z,72.61
2019-02-11T10:35:49.809Z,72.38
2019-02-11T10:38:18.043Z,72.12
2019-02-11T10:40:46.265Z,72.26
2019-02-11T10:43:14.725Z,71.94
2019-02-11T10:45:43.196Z,71.03
2019-02-11T10:48:11.436Z,71.54
2019-02-11T10:50:39.658Z,71.09
2019-02-11T10:53:07.892Z,71.08
2019-02-11T10:55:36.423Z,71.24
2019-02-11T10:58:04.687Z,71.15
2019-02-11T11:00:33.569Z,71.52
2019-02-11T11:03:02.045Z,70.70
2019-02-11T11:05:30.501Z,70.96
2019-02-11T11:07:58.965Z,71.38
2019-02-11T11:10:30.359Z,71.38
2019-02-11T11:12:58.670Z,71.07
2019-02-11T11:15:28.951Z,70.53
2019-02-11T11:17:57.068Z,70.95
2019-02-11T11:20:25.430Z,70.97
2019-02-11T11:22:53.729Z,70.84
2019-02-11T11:25:21.949Z,70.95
2019-02-11T11:27:50.186Z,71.33
2019-02-11T11:30:19.434Z,71.39
2019-02-11T11:32:48.154Z,71.37
2019-02-11T11:35:17.955Z,70.84
2019-02-11T11:37:46.191Z,70.84
2019-02-11T11:40:21.997Z,69.93
2019-02-11T11:42:50.476Z,69.93
2019-02-11T11:45:19.665Z,69.94
2019-02-11T11:47:48.165Z,69.94
2019-02-11T11:50:17.716Z,69.48
2019-02-11T11:52:45.924Z,69.48
2019-02-11T11:55:19.750Z,69.46
2019-02-11T11:57:48.060Z,70.02
2019-02-11T12:00:21.985Z,70.02
2019-02-11T12:03:02.159Z,70.51
2019-02-11T12:05:20.614Z,70.51
2019-02-11T12:07:48.811Z,70.78
2019-02-11T12:10:17.717Z,70.52
2019-02-11T12:12:45.950Z,70.71
2019-02-11T12:15:16.937Z,69.48
2019-02-11T12:17:46.714Z,69.16
2019-02-11T12:20:15.693Z,68.91
2019-02-11T12:22:43.904Z,68.91
2019-02-11T12:25:14.178Z,68.45
2019-02-11T12:27:42.516Z,68.45
2019-02-11T12:30:16.986Z,68.67
2019-02-11T12:32:45.191Z,68.67
2019-02-11T12:35:14.173Z,68.45
2019-02-11T12:37:42.391Z,68.64
2019-02-11T12:40:11.840Z,68.27
2019-02-11T12:42:40.058Z,68.46
2019-02-11T12:45:13.904Z,68.54
2019-02-11T12:47:42.135Z,68.60
2019-02-11T12:50:12.939Z,68.31
2019-02-11T12:52:41.465Z,68.25
2019-02-11T12:55:11.625Z,67.75
2019-02-11T12:57:39.854Z,67.32
2019-02-11T13:00:10.927Z,66.78
2019-02-11T13:02:39.121Z,66.18
2019-02-11T13:07:46.623Z,66.04
2019-02-11T13:10:20.425Z,66.02
2019-02-11T13:12:48.708Z,66.08
2019-02-11T13:15:42.007Z,66.48
2019-02-11T13:17:47.975Z,66.11
2019-02-11T13:20:19.637Z,66.80
2019-02-11T13:22:48.196Z,67.12
2019-02-11T13:25:17.439Z,67.06
2019-02-11T13:27:45.665Z,67.01
2019-02-11T13:30:19.802Z,67.15
2019-02-11T13:32:48.066Z,66.91
2019-02-11T13:35:16.400Z,66.53
2019-02-11T13:37:44.805Z,66.56
2019-02-11T13:40:13.286Z,66.16
2019-02-11T13:42:41.699Z,65.15
2019-02-11T13:45:12.581Z,65.21
2019-02-11T13:47:53.282Z,65.51
2019-02-11T13:50:23.382Z,65.09
2019-02-11T13:52:51.757Z,64.47
2019-02-11T13:55:20.038Z,64.29
2019-02-11T13:57:48.607Z,64.51
2019-02-11T14:00:21.047Z,63.52
2019-02-11T14:02:51.756Z,62.81
2019-02-11T14:05:20.203Z,63.58
2019-02-11T14:07:48.440Z,63.60
2019-02-11T14:10:16.741Z,63.04
2019-02-11T14:12:45.054Z,63.28
2019-02-11T14:15:13.274Z,63.53
2019-02-11T14:17:41.522Z,62.90
2019-02-11T14:20:15.362Z,63.04
2019-02-11T14:22:43.622Z,62.50
2019-02-11T14:25:11.858Z,62.60
2019-02-11T14:27:40.940Z,62.69
2019-02-11T14:30:15.292Z,62.80
2019-02-11T14:32:44.057Z,63.15
2019-02-11T14:35:12.354Z,63.51
2019-02-11T14:37:40.586Z,63.73
2019-02-11T14:40:10.451Z,64.12
2019-02-11T14:42:38.682Z,64.52
2019-02-11T14:45:12.643Z,64.63
2019-02-11T14:47:44.198Z,64.35
2019-02-11T14:50:11.131Z,64.71
2019-02-11T14:52:39.373Z,64.96
2019-02-11T14:55:09.363Z,65.35
2019-02-11T14:57:37.828Z,65.74
2019-02-11T15:00:13.671Z,66.24
2019-02-11T15:02:41.909Z,66.34
2019-02-11T15:05:10.209Z,66.78
2019-02-11T15:07:38.677Z,67.06
2019-02-11T15:10:09.444Z,67.11
2019-02-11T15:12:37.687Z,67.84
2019-02-11T15:15:10.214Z,67.61
2019-02-11T15:17:39.593Z,67.99
2019-02-11T15:20:10.064Z,68.00
2019-02-11T15:22:38.306Z,68.05
2019-02-11T15:25:09.477Z,67.82
2019-02-11T15:27:38.266Z,67.60
2019-02-11T15:30:09.380Z,67.52
2019-02-11T15:32:37.856Z,67.75
2019-02-11T15:35:07.987Z,67.27
2019-02-11T15:37:36.295Z,67.57
2019-02-11T15:40:13.700Z,67.78
2019-02-11T15:42:41.951Z,68.11
2019-02-11T15:45:12.957Z,68.41
2019-02-11T15:47:41.424Z,68.62
2019-02-11T15:50:11.596Z,69.03
2019-02-11T15:52:40.133Z,69.13
2019-02-11T15:55:10.970Z,69.52
2019-02-11T15:57:39.208Z,69.58
2019-02-11T16:00:10.608Z,69.68
2019-02-11T16:02:38.845Z,69.70
2019-02-11T16:05:12.374Z,70.00
2019-02-11T16:07:38.767Z,70.48
2019-02-11T16:10:10.031Z,70.99
2019-02-11T16:12:38.269Z,71.04
2019-02-11T16:15:09.168Z,71.03
2019-02-11T16:17:37.648Z,71.47
2019-02-11T16:20:08.641Z,71.65
2019-02-11T16:22:36.867Z,71.66
2019-02-11T16:25:07.873Z,72.06
2019-02-11T16:27:36.098Z,72.22
2019-02-11T16:30:07.549Z,72.40
2019-02-11T16:32:35.845Z,72.56
2019-02-11T16:35:05.452Z,72.55
2019-02-11T16:37:33.699Z,72.67
2019-02-11T16:40:02.245Z,72.95
2019-02-11T16:42:30.469Z,72.89
2019-02-11T16:44:58.994Z,73.06
2019-02-11T16:47:27.229Z,72.62
2019-02-11T16:49:55.569Z,72.62
2019-02-11T16:52:24.009Z,73.92
2019-02-11T16:54:52.256Z,73.54
2019-02-11T16:57:20.495Z,73.54
2019-02-11T16:59:48.725Z,73.80
2019-02-11T17:02:17.217Z,73.87
2019-02-11T17:04:45.425Z,73.57
2019-02-11T17:07:13.661Z,73.40
2019-02-11T17:09:42.133Z,73.82
2019-02-11T17:12:10.357Z,73.82
2019-02-11T17:14:38.828Z,73.82
2019-02-11T17:24:46.439Z,73.87
2019-02-11T17:34:32.962Z,74.53
2019-02-11T17:37:01.247Z,74.83
2019-02-11T17:39:29.486Z,74.83
2019-02-11T17:41:57.738Z,74.54
2019-02-11T17:44:25.954Z,74.55
2019-02-11T17:46:54.418Z,74.17
2019-02-11T17:49:22.655Z,74.57
2019-02-11T17:51:51.131Z,74.57
2019-02-11T17:54:19.362Z,74.04
2019-02-11T17:56:47.898Z,74.04
2019-02-11T17:59:16.359Z,74.24
2019-02-11T18:01:44.605Z,74.37
2019-02-11T18:04:12.842Z,74.54
2019-02-11T18:06:41.079Z,75.57
2019-02-11T18:09:09.816Z,75.57
2019-02-11T18:11:38.129Z,75.48
2019-02-11T18:14:06.593Z,76.09
2019-02-11T18:16:34.864Z,76.09
2019-02-11T18:19:03.121Z,76.02
2019-02-11T18:21:32.814Z,77.03
2019-02-11T18:24:01.665Z,77.03
2019-02-11T18:26:30.602Z,77.00
2019-02-11T18:28:58.840Z,77.23
2019-02-11T18:31:27.349Z,77.42
2019-02-11T18:33:55.590Z,78.42
2019-02-11T18:36:23.822Z,78.06
2019-02-11T18:38:52.307Z,78.68
2019-02-11T18:41:20.535Z,79.60
2019-02-11T18:43:49.012Z,78.62
2019-02-11T18:46:17.259Z,79.27
2019-02-11T18:48:45.720Z,79.27
2019-02-11T18:51:14.215Z,79.55
2019-02-11T18:53:42.495Z,79.55
2019-02-11T18:56:10.722Z,80.02
2019-02-11T18:58:38.970Z,79.51
2019-02-11T19:01:07.205Z,79.87
2019-02-11T19:03:35.451Z,80.69
2019-02-11T19:06:03.691Z,79.84
2019-02-11T19:08:32.152Z,80.42
2019-02-11T19:11:00.384Z,80.42
2019-02-11T19:13:28.629Z,80.63
2019-02-11T19:15:56.861Z,80.48
2019-02-11T19:18:25.099Z,80.43
2019-02-11T19:20:53.582Z,80.43
2019-02-11T19:23:22.058Z,80.70
2019-02-11T19:25:50.308Z,80.73
2019-02-11T19:28:18.917Z,80.73
2019-02-11T19:30:47.419Z,80.64
2019-02-11T19:33:15.983Z,80.93
2019-02-11T19:35:44.586Z,80.77
2019-02-11T19:38:13.101Z,80.92
2019-02-11T19:40:41.336Z,80.98
2019-02-11T19:43:09.576Z,80.96
2019-02-11T19:45:37.811Z,80.57
2019-02-11T19:48:06.309Z,80.57
2019-02-11T19:50:34.769Z,80.57
2019-02-11T19:53:03.233Z,79.87
2019-02-11T19:55:31.717Z,79.78
2019-02-11T19:58:00.204Z,79.49
2019-02-11T20:00:28.702Z,78.70
2019-02-11T20:02:56.941Z,79.04
2019-02-11T20:05:25.208Z,79.04
2019-02-11T20:07:53.438Z,78.20
2019-02-11T20:10:23.283Z,77.56
2019-02-11T20:12:51.769Z,77.56
2019-02-11T20:15:25.838Z,78.09
2019-02-11T20:17:54.295Z,77.83
2019-02-11T20:20:22.904Z,77.98
2019-02-11T20:22:51.141Z,78.24
2019-02-11T20:25:19.455Z,78.24
2019-02-11T20:27:47.684Z,77.97
2019-02-11T20:30:19.168Z,77.87
2019-02-11T20:32:47.650Z,77.87
2019-02-11T20:35:16.130Z,77.83
2019-02-11T20:37:44.618Z,77.94
2019-02-11T20:40:15.600Z,78.01
2019-02-11T20:42:43.836Z,77.90
2019-02-11T20:45:15.008Z,78.15
2019-02-11T20:47:43.254Z,78.18
2019-02-11T20:50:12.222Z,78.18
2019-02-11T20:52:40.739Z,78.47
2019-02-11T20:55:11.718Z,78.70
2019-02-11T20:57:40.177Z,78.72
2019-02-11T21:00:16.629Z,78.70
2019-02-11T21:02:44.940Z,79.06
2019-02-11T21:05:13.469Z,79.06
2019-02-11T21:07:41.706Z,79.12
2019-02-11T21:10:12.542Z,79.25
2019-02-11T21:12:40.787Z,79.51
2019-02-11T21:15:12.124Z,79.51
2019-02-11T21:17:40.596Z,79.85
2019-02-11T21:20:17.563Z,80.14
2019-02-11T21:22:45.272Z,80.22
2019-02-11T21:25:13.590Z,80.61
2019-02-11T21:27:42.059Z,80.68
2019-02-11T21:30:12.429Z,80.37
2019-02-11T21:32:40.915Z,80.44
2019-02-11T21:35:10.907Z,81.42
2019-02-11T21:37:40.026Z,80.66
2019-02-11T21:40:08.495Z,80.65
2019-02-11T21:42:36.748Z,80.78
2019-02-11T21:45:07.768Z,81.83
2019-02-11T21:47:36.224Z,81.75
2019-02-11T21:50:07.066Z,81.27
2019-02-11T21:52:35.531Z,83.02
2019-02-11T21:55:05.045Z,81.67
2019-02-11T21:57:33.499Z,81.75
2019-02-11T22:00:01.738Z,82.01
2019-02-11T22:02:29.971Z,81.79
2019-02-11T22:04:58.238Z,82.09
2019-02-11T22:07:26.492Z,81.99
2019-02-11T22:09:54.961Z,82.77
2019-02-11T22:12:23.198Z,82.84
2019-02-11T22:14:51.439Z,82.35
2019-02-11T22:17:19.668Z,83.10
2019-02-11T22:19:47.917Z,82.33
2019-02-11T22:22:16.150Z,82.40
2019-02-11T22:24:44.391Z,82.19
2019-02-11T22:27:12.876Z,82.15
2019-02-11T22:29:41.112Z,81.86
2019-02-11T22:32:09.339Z,81.43
2019-02-11T22:34:37.590Z,81.45
2019-02-11T22:37:05.825Z,81.46
2019-02-11T22:39:34.061Z,81.76
2019-02-11T22:42:02.293Z,81.45
2019-02-11T22:44:30.764Z,82.18
2019-02-11T22:46:58.998Z,82.05
2019-02-11T22:49:27.243Z,82.15
2019-02-11T22:51:55.473Z,82.02
2019-02-11T22:54:23.953Z,82.06
2019-02-11T22:56:52.407Z,82.14
2019-02-11T22:59:20.653Z,82.81
2019-02-11T23:01:48.881Z,82.09
2019-02-11T23:04:17.113Z,82.23
2019-02-11T23:06:45.355Z,82.11
2019-02-11T23:09:13.663Z,82.21
2019-02-11T23:11:42.130Z,82.34
2019-02-11T23:14:10.359Z,82.36
2019-02-11T23:16:38.838Z,82.28
2019-02-11T23:19:07.321Z,81.83
2019-02-11T23:21:35.557Z,81.64
2019-02-11T23:24:04.011Z,81.43
2019-02-11T23:26:32.261Z,81.23
2019-02-11T23:29:00.510Z,81.25
2019-02-11T23:31:28.982Z,81.24
2019-02-11T23:33:57.470Z,81.18
2019-02-11T23:36:25.739Z,81.23
2019-02-11T23:38:53.969Z,81.09
2019-02-11T23:41:22.453Z,81.25
2019-02-11T23:43:50.702Z,81.18
2019-02-11T23:46:18.947Z,81.17
2019-02-11T23:48:47.402Z,81.11
2019-02-11T23:51:15.635Z,81.14
2019-02-11T23:53:43.868Z,81.31
2019-02-11T23:56:12.103Z,80.83
2019-02-11T23:58:40.565Z,80.64
